createdAt,value
2023-04-03T00:00:39.225Z,281
2023-04-03T00:02:46.855Z,282
2023-04-03T00:04:54.282Z,282
2023-04-03T00:07:00.633Z,282
2023-04-03T00:09:08.728Z,282
2023-04-03T00:11:15.370Z,282
2023-04-03T00:13:22.982Z,282
2023-04-03T00:15:29.419Z,280
2023-04-03T00:17:36.062Z,278
2023-04-03T00:19:42.759Z,277
2023-04-03T00:21:49.161Z,279
2023-04-03T00:23:55.769Z,278
2023-04-03T00:26:03.298Z,279
2023-04-03T00:28:10.063Z,281
2023-04-03T00:30:16.671Z,279
2023-04-03T00:32:23.502Z,280
2023-04-03T00:34:29.817Z,280
2023-04-03T00:36:36.079Z,280
2023-04-03T00:38:42.741Z,280
2023-04-03T00:40:49.352Z,279
2023-04-03T00:42:55.545Z,280
2023-04-03T00:45:03.512Z,279
2023-04-03T00:47:10.212Z,279
2023-04-03T00:49:16.892Z,279
2023-04-03T00:51:24.331Z,279
2023-04-03T00:53:30.952Z,280
2023-04-03T00:55:37.925Z,280
2023-04-03T00:57:44.422Z,279
2023-04-03T00:59:50.752Z,280
2023-04-03T01:01:57.262Z,279
2023-04-03T01:04:03.748Z,278
2023-04-03T01:06:09.949Z,276
2023-04-03T01:08:16.696Z,280
2023-04-03T01:10:23.582Z,279
2023-04-03T01:12:29.976Z,279
2023-04-03T01:14:38.081Z,279
2023-04-03T01:16:45.002Z,279
2023-04-03T01:18:52.501Z,279
2023-04-03T01:20:59.693Z,279
2023-04-03T01:23:05.760Z,277
2023-04-03T01:25:12.223Z,279
2023-04-03T01:27:18.863Z,276
2023-04-03T01:29:25.125Z,276
2023-04-03T01:31:32.397Z,277
2023-04-03T01:33:39.217Z,280
2023-04-03T01:35:45.647Z,280
2023-04-03T01:37:52.973Z,280
2023-04-03T01:39:59.207Z,281
2023-04-03T01:42:05.606Z,282
2023-04-03T01:44:12.941Z,280
2023-04-03T01:46:19.210Z,283
2023-04-03T01:48:26.919Z,289
2023-04-03T01:50:33.558Z,297
2023-04-03T01:52:40.279Z,295
2023-04-03T01:54:46.974Z,297
2023-04-03T01:56:53.979Z,297
2023-04-03T01:59:00.365Z,297
2023-04-03T02:01:07.129Z,297
2023-04-03T02:03:14.440Z,297
2023-04-03T02:05:23.347Z,297
2023-04-03T02:07:30.055Z,297
2023-04-03T02:09:36.193Z,297
2023-04-03T02:11:42.875Z,297
2023-04-03T02:13:51.831Z,297
2023-04-03T02:15:58.837Z,297
2023-04-03T02:18:10.682Z,297
2023-04-03T02:20:17.238Z,297
2023-04-03T02:22:23.704Z,297
2023-04-03T02:24:30.478Z,297
2023-04-03T02:26:36.985Z,297
2023-04-03T02:28:43.804Z,297
2023-04-03T02:30:51.281Z,296
2023-04-03T02:32:57.525Z,297
2023-04-03T02:35:03.891Z,297
2023-04-03T02:37:10.278Z,297
2023-04-03T02:39:17.031Z,297
2023-04-03T02:41:24.136Z,297
2023-04-03T02:43:30.844Z,297
2023-04-03T02:45:38.119Z,296
2023-04-03T02:47:44.821Z,296
2023-04-03T02:49:52.016Z,296
2023-04-03T02:51:58.929Z,296
2023-04-03T02:54:05.738Z,296
2023-04-03T02:56:12.840Z,297
2023-04-03T02:58:19.967Z,297
2023-04-03T03:00:26.401Z,296
2023-04-03T03:02:33.853Z,297
2023-04-03T03:04:40.682Z,296
2023-04-03T03:06:47.992Z,297
2023-04-03T03:08:54.497Z,297
2023-04-03T03:11:01.398Z,297
2023-04-03T03:13:07.910Z,297
2023-04-03T03:15:14.684Z,297
2023-04-03T03:17:22.900Z,297
2023-04-03T03:19:30.498Z,297
2023-04-03T03:21:38.774Z,297
2023-04-03T03:23:45.772Z,297
2023-04-03T03:25:52.290Z,297
2023-04-03T03:27:59.172Z,297
2023-04-03T03:30:05.447Z,297
2023-04-03T03:32:11.579Z,297
2023-04-03T03:34:17.728Z,297
2023-04-03T03:36:24.476Z,297
2023-04-03T03:38:31.240Z,297
2023-04-03T03:40:37.724Z,297
2023-04-03T03:42:45.584Z,298
2023-04-03T03:44:52.338Z,298
2023-04-03T03:46:58.853Z,297
2023-04-03T03:49:05.879Z,297
2023-04-03T03:51:12.975Z,297
2023-04-03T03:53:19.269Z,298
2023-04-03T03:55:25.945Z,297
2023-04-03T03:57:33.260Z,297
2023-04-03T03:59:41.406Z,298
2023-04-03T04:01:48.417Z,297
2023-04-03T04:03:55.940Z,297
2023-04-03T04:06:02.754Z,297
2023-04-03T04:08:09.213Z,297
2023-04-03T04:10:15.464Z,297
2023-04-03T04:12:23.208Z,297
2023-04-03T04:14:29.685Z,298
2023-04-03T04:16:36.086Z,297
2023-04-03T04:18:44.055Z,298
2023-04-03T04:20:51.124Z,298
2023-04-03T04:22:57.428Z,298
2023-04-03T04:25:04.064Z,298
2023-04-03T04:27:11.648Z,298
2023-04-03T04:29:18.829Z,298
2023-04-03T04:31:26.962Z,298
2023-04-03T04:33:34.230Z,298
2023-04-03T04:35:42.322Z,298
2023-04-03T04:37:48.711Z,298
2023-04-03T04:39:55.667Z,298
2023-04-03T04:42:02.797Z,298
2023-04-03T04:44:09.136Z,297
2023-04-03T04:46:17.489Z,297
2023-04-03T04:48:24.320Z,298
2023-04-03T04:50:31.804Z,297
2023-04-03T04:52:39.005Z,298
2023-04-03T04:54:45.768Z,298
2023-04-03T04:56:53.984Z,297
2023-04-03T04:59:00.532Z,297
2023-04-03T05:01:07.396Z,297
2023-04-03T05:03:14.570Z,296
2023-04-03T05:05:21.537Z,297
2023-04-03T05:07:29.244Z,297
2023-04-03T05:09:37.021Z,296
2023-04-03T05:11:44.669Z,291
2023-04-03T05:13:52.359Z,296
2023-04-03T05:16:00.432Z,297
2023-04-03T05:18:08.491Z,296
2023-04-03T05:20:16.320Z,297
2023-04-03T05:22:23.895Z,296
2023-04-03T05:24:31.433Z,296
2023-04-03T05:26:39.496Z,296
2023-04-03T05:28:46.595Z,296
2023-04-03T05:30:54.764Z,297
2023-04-03T05:33:02.354Z,296
2023-04-03T05:35:09.824Z,296
2023-04-03T05:37:17.996Z,296
2023-04-03T05:39:26.305Z,297
2023-04-03T05:41:34.340Z,297
2023-04-03T05:43:42.324Z,296
2023-04-03T05:45:50.697Z,296
2023-04-03T05:47:57.918Z,296
2023-04-03T05:50:06.327Z,297
2023-04-03T05:52:14.398Z,296
2023-04-03T05:54:22.520Z,297
2023-04-03T05:56:30.848Z,297
2023-04-03T05:58:37.724Z,297
2023-04-03T06:00:44.876Z,297
2023-04-03T06:02:52.378Z,297
2023-04-03T06:05:00.234Z,297
2023-04-03T06:07:08.513Z,297
2023-04-03T06:09:15.774Z,297
2023-04-03T06:11:22.567Z,296
2023-04-03T06:13:29.838Z,296
2023-04-03T06:15:36.815Z,296
2023-04-03T06:17:44.631Z,294
2023-04-03T06:19:51.947Z,296
2023-04-03T06:22:00.181Z,296
2023-04-03T06:24:07.562Z,296
2023-04-03T06:26:14.836Z,296
2023-04-03T06:28:22.028Z,296
2023-04-03T06:30:28.113Z,296
2023-04-03T06:32:35.109Z,296
2023-04-03T06:34:41.812Z,296
2023-04-03T06:36:48.914Z,297
2023-04-03T06:38:56.194Z,296
2023-04-03T06:41:03.019Z,296
2023-04-03T06:43:10.452Z,294
2023-04-03T06:45:17.164Z,294
2023-04-03T06:47:24.600Z,296
2023-04-03T06:49:31.526Z,296
2023-04-03T06:51:38.158Z,296
2023-04-03T06:53:45.270Z,295
2023-04-03T06:55:52.541Z,296
2023-04-03T06:57:58.971Z,296
2023-04-03T07:00:05.931Z,296
2023-04-03T07:02:12.527Z,295
2023-04-03T07:04:19.568Z,296
2023-04-03T07:06:26.735Z,296
2023-04-03T07:08:33.448Z,294
2023-04-03T07:10:41.122Z,296
2023-04-03T07:12:48.116Z,296
2023-04-03T07:14:55.266Z,296
2023-04-03T07:17:02.197Z,296
2023-04-03T07:19:08.958Z,296
2023-04-03T07:21:18.583Z,296
2023-04-03T07:23:24.922Z,296
2023-04-03T07:25:31.292Z,296
2023-04-03T07:27:38.563Z,297
2023-04-03T07:29:45.473Z,296
2023-04-03T07:31:51.711Z,294
2023-04-03T07:33:58.238Z,290
2023-04-03T07:36:04.661Z,290
2023-04-03T07:38:12.441Z,291
2023-04-03T07:40:21.296Z,291
2023-04-03T07:42:28.820Z,293
2023-04-03T07:44:36.338Z,294
2023-04-03T07:46:42.855Z,296
2023-04-03T07:48:49.452Z,295
2023-04-03T07:50:56.626Z,294
2023-04-03T07:53:03.347Z,295
2023-04-03T07:55:11.139Z,288
2023-04-03T07:57:18.002Z,290
2023-04-03T07:59:24.272Z,288
2023-04-03T08:01:30.438Z,289
2023-04-03T08:03:38.409Z,282
2023-04-03T08:05:46.297Z,286
2023-04-03T08:07:53.595Z,282
2023-04-03T08:09:59.953Z,284
2023-04-03T08:12:06.384Z,289
2023-04-03T08:14:13.013Z,281
2023-04-03T08:16:20.000Z,296
2023-04-03T08:18:27.478Z,294
2023-04-03T08:20:34.146Z,294
2023-04-03T08:22:44.405Z,295
2023-04-03T08:25:02.250Z,294
2023-04-03T08:27:09.355Z,296
2023-04-03T08:29:17.401Z,297
2023-04-03T08:31:26.262Z,296
2023-04-03T08:33:33.973Z,294
2023-04-03T08:35:42.843Z,297
2023-04-03T08:37:51.112Z,296
2023-04-03T08:39:58.796Z,296
2023-04-03T08:42:06.451Z,297
2023-04-03T08:44:12.925Z,297
2023-04-03T08:46:19.598Z,297
2023-04-03T08:48:27.497Z,297
2023-04-03T08:50:36.044Z,298
2023-04-03T08:52:43.226Z,300
2023-04-03T08:54:49.308Z,300
2023-04-03T08:56:55.592Z,298
2023-04-03T08:59:02.805Z,298
2023-04-03T09:01:10.230Z,297
2023-04-03T09:03:18.450Z,300
2023-04-03T09:05:27.032Z,300
2023-04-03T09:07:33.684Z,298
2023-04-03T09:09:41.589Z,300
2023-04-03T09:11:48.294Z,300
2023-04-03T09:13:54.710Z,298
2023-04-03T09:16:01.591Z,300
2023-04-03T09:18:08.083Z,300
2023-04-03T09:20:15.124Z,301
2023-04-03T09:22:25.668Z,296
2023-04-03T09:24:32.234Z,292
2023-04-03T09:26:39.129Z,294
2023-04-03T09:28:54.374Z,297
2023-04-03T09:31:01.696Z,297
2023-04-03T09:33:08.478Z,296
2023-04-03T09:35:44.600Z,295
2023-04-03T09:37:53.737Z,296
2023-04-03T09:40:00.636Z,296
2023-04-03T09:42:07.070Z,297
2023-04-03T09:44:13.818Z,297
2023-04-03T09:46:23.070Z,297
2023-04-03T09:48:29.864Z,297
2023-04-03T09:50:38.399Z,297
2023-04-03T09:52:45.182Z,298
2023-04-03T09:54:51.630Z,297
2023-04-03T09:56:59.302Z,298
2023-04-03T09:59:06.960Z,297
2023-04-03T10:01:13.744Z,298
2023-04-03T10:03:20.751Z,298
2023-04-03T10:05:27.789Z,298
2023-04-03T10:07:34.690Z,298
2023-04-03T10:09:41.997Z,298
2023-04-03T10:11:48.964Z,298
2023-04-03T10:13:55.261Z,298
2023-04-03T10:16:01.583Z,298
2023-04-03T10:18:26.285Z,298
2023-04-03T10:20:32.603Z,298
2023-04-03T10:22:38.978Z,298
2023-04-03T10:24:45.960Z,298
2023-04-03T10:26:52.502Z,298
2023-04-03T10:28:59.351Z,297
2023-04-03T10:31:05.715Z,298
2023-04-03T10:33:13.330Z,298
2023-04-03T10:35:20.359Z,298
2023-04-03T10:37:27.268Z,298
2023-04-03T10:39:34.979Z,297
2023-04-03T10:41:41.609Z,297
2023-04-03T10:43:48.323Z,297
2023-04-03T10:45:56.346Z,297
2023-04-03T10:48:03.179Z,297
2023-04-03T10:50:09.781Z,298
2023-04-03T10:52:18.106Z,298
2023-04-03T10:54:24.766Z,298
2023-04-03T10:56:31.668Z,298
2023-04-03T10:58:38.459Z,298
2023-04-03T11:00:45.939Z,297
2023-04-03T11:02:52.548Z,298
2023-04-03T11:04:58.744Z,298
2023-04-03T11:07:05.245Z,298
2023-04-03T11:09:11.694Z,298
2023-04-03T11:11:18.243Z,297
2023-04-03T11:13:24.605Z,297
2023-04-03T11:15:31.993Z,298
2023-04-03T11:17:41.278Z,297
2023-04-03T11:19:48.547Z,298
2023-04-03T11:21:54.904Z,298
2023-04-03T11:24:01.216Z,298
2023-04-03T11:26:07.848Z,297
2023-04-03T11:28:14.155Z,297
2023-04-03T11:30:20.818Z,298
2023-04-03T11:32:28.306Z,298
2023-04-03T11:34:34.996Z,297
2023-04-03T11:36:42.139Z,298
2023-04-03T11:38:49.607Z,298
2023-04-03T11:40:57.576Z,297
2023-04-03T11:43:07.171Z,298
2023-04-03T11:45:15.015Z,298
2023-04-03T11:47:23.920Z,298
2023-04-03T11:49:31.131Z,297
2023-04-03T11:51:39.617Z,298
2023-04-03T11:53:47.188Z,297
2023-04-03T11:55:54.452Z,298
2023-04-03T11:58:02.395Z,298
2023-04-03T12:00:10.752Z,298
2023-04-03T12:02:17.214Z,298
2023-04-03T12:04:25.564Z,298
2023-04-03T12:06:33.570Z,298
2023-04-03T12:08:41.117Z,298
2023-04-03T12:10:49.013Z,298
2023-04-03T12:12:55.429Z,298
2023-04-03T12:15:02.345Z,300
2023-04-03T12:17:10.243Z,298
2023-04-03T12:19:18.019Z,300
2023-04-03T12:21:29.139Z,298
2023-04-03T12:23:36.880Z,298
2023-04-03T12:25:45.408Z,298
2023-04-03T12:27:52.970Z,298
2023-04-03T12:30:00.292Z,298
2023-04-03T12:32:07.832Z,288
2023-04-03T12:34:15.900Z,291
2023-04-03T12:36:24.709Z,296
2023-04-03T12:38:32.247Z,294
2023-04-03T12:40:42.430Z,300
2023-04-03T12:42:50.437Z,296
2023-04-03T12:44:58.203Z,295
2023-04-03T12:47:06.102Z,297
2023-04-03T12:49:13.019Z,290
2023-04-03T12:51:20.332Z,297
2023-04-03T12:53:27.963Z,296
2023-04-03T12:55:35.230Z,296
2023-04-03T12:57:42.814Z,297
2023-04-03T12:59:51.537Z,297
2023-04-03T13:01:59.289Z,297
2023-04-03T13:04:06.948Z,294
2023-04-03T13:06:14.323Z,297
2023-04-03T13:08:22.532Z,298
2023-04-03T13:10:29.995Z,296
2023-04-03T13:12:37.685Z,290
2023-04-03T13:14:44.405Z,283
2023-04-03T13:16:50.926Z,293
2023-04-03T13:18:58.251Z,283
2023-04-03T13:21:05.120Z,286
2023-04-03T13:23:12.992Z,301
2023-04-03T13:25:20.504Z,301
2023-04-03T13:27:27.027Z,301
2023-04-03T13:29:35.566Z,301
2023-04-03T13:31:44.326Z,301
2023-04-03T13:33:53.090Z,297
2023-04-03T13:36:01.577Z,289
2023-04-03T13:38:11.249Z,293
2023-04-03T13:40:19.340Z,289
2023-04-03T13:42:27.140Z,298
2023-04-03T13:44:33.802Z,297
2023-04-03T13:46:41.264Z,298
2023-04-03T13:48:48.791Z,300
2023-04-03T13:51:09.782Z,300
2023-04-03T13:53:18.110Z,298
2023-04-03T13:55:30.037Z,300
2023-04-03T13:57:37.925Z,297
2023-04-03T13:59:46.273Z,300
2023-04-03T14:01:54.291Z,300
2023-04-03T14:04:01.989Z,297
2023-04-03T14:06:09.572Z,294
2023-04-03T14:08:16.876Z,296
2023-04-03T14:10:28.474Z,294
2023-04-03T14:12:36.459Z,293
2023-04-03T14:14:43.944Z,290
2023-04-03T14:16:51.660Z,282
2023-04-03T14:19:00.441Z,298
2023-04-03T14:21:07.968Z,296
2023-04-03T14:23:17.575Z,301
2023-04-03T14:25:24.451Z,298
2023-04-03T14:27:33.058Z,298
2023-04-03T14:29:40.663Z,298
2023-04-03T14:31:48.939Z,298
2023-04-03T14:34:07.052Z,298
2023-04-03T14:36:15.276Z,297
2023-04-03T14:38:22.808Z,298
2023-04-03T14:40:30.784Z,298
2023-04-03T14:42:38.283Z,300
2023-04-03T14:44:48.623Z,298
2023-04-03T14:47:00.650Z,297
2023-04-03T14:49:08.434Z,298
2023-04-03T14:51:16.025Z,298
2023-04-03T14:53:40.940Z,298
2023-04-03T14:55:50.593Z,297
2023-04-03T14:57:58.616Z,297
2023-04-03T15:00:06.563Z,297
2023-04-03T15:02:13.778Z,298
2023-04-03T15:04:24.250Z,297
2023-04-03T15:06:31.398Z,280
2023-04-03T15:08:38.694Z,301
2023-04-03T15:10:46.617Z,302
2023-04-03T15:12:54.051Z,300
2023-04-03T15:15:06.680Z,302
2023-04-03T15:17:14.654Z,301
2023-04-03T15:19:22.572Z,302
2023-04-03T15:21:30.200Z,302
2023-04-03T15:23:38.188Z,301
2023-04-03T15:25:46.438Z,293
2023-04-03T15:27:55.063Z,292
2023-04-03T15:30:04.268Z,291
2023-04-03T15:32:12.921Z,279
2023-04-03T15:34:19.520Z,280
2023-04-03T15:36:38.186Z,280
2023-04-03T15:38:48.515Z,283
2023-04-03T15:40:56.066Z,283
2023-04-03T15:43:04.674Z,282
2023-04-03T15:45:12.453Z,283
2023-04-03T15:47:20.482Z,283
2023-04-03T15:49:29.507Z,283
2023-04-03T15:51:37.342Z,284
2023-04-03T15:53:45.569Z,282
2023-04-03T15:55:53.297Z,283
2023-04-03T15:58:01.125Z,284
2023-04-03T16:00:09.558Z,286
2023-04-03T16:02:16.666Z,288
2023-04-03T16:04:24.491Z,288
2023-04-03T16:06:32.660Z,288
2023-04-03T16:08:41.127Z,286
2023-04-03T16:10:48.355Z,288
2023-04-03T16:12:56.244Z,286
2023-04-03T16:15:06.284Z,288
2023-04-03T16:17:13.664Z,288
2023-04-03T16:19:28.624Z,288
2023-04-03T16:21:35.585Z,288
2023-04-03T16:23:44.202Z,283
2023-04-03T16:25:51.735Z,283
2023-04-03T16:28:00.101Z,284
2023-04-03T16:30:07.581Z,286
2023-04-03T16:32:15.459Z,308
2023-04-03T16:34:23.186Z,309
2023-04-03T16:36:32.006Z,309
2023-04-03T16:38:39.766Z,309
2023-04-03T16:40:47.636Z,309
2023-04-03T16:42:55.510Z,309
2023-04-03T16:45:03.256Z,309
2023-04-03T16:47:12.017Z,309
2023-04-03T16:49:21.844Z,309
2023-04-03T16:51:31.246Z,309
2023-04-03T16:53:41.804Z,309
2023-04-03T16:55:51.259Z,309
2023-04-03T16:57:59.208Z,309
2023-04-03T17:00:08.913Z,309
2023-04-03T17:02:17.370Z,309
2023-04-03T17:04:26.563Z,310
2023-04-03T17:06:36.653Z,309
2023-04-03T17:08:45.797Z,309
2023-04-03T17:10:54.941Z,282
2023-04-03T17:13:14.185Z,286
2023-04-03T17:15:23.768Z,308
2023-04-03T17:17:31.632Z,309
2023-04-03T17:19:40.156Z,308
2023-04-03T17:21:49.954Z,308
2023-04-03T17:23:59.547Z,309
2023-04-03T17:26:08.371Z,309
2023-04-03T17:28:22.682Z,309
2023-04-03T17:30:34.258Z,309
2023-04-03T17:32:44.953Z,309
2023-04-03T17:34:54.512Z,309
2023-04-03T17:37:04.897Z,309
2023-04-03T17:39:17.362Z,309
2023-04-03T17:41:30.035Z,310
2023-04-03T17:43:39.704Z,309
2023-04-03T17:45:48.999Z,309
2023-04-03T17:47:57.923Z,309
2023-04-03T17:50:07.327Z,309
2023-04-03T17:52:17.039Z,308
2023-04-03T17:54:28.567Z,309
2023-04-03T17:56:38.653Z,309
2023-04-03T17:58:47.824Z,309
2023-04-03T18:00:56.715Z,309
2023-04-03T18:03:10.042Z,309
2023-04-03T18:05:25.746Z,309
2023-04-03T18:07:39.215Z,309
2023-04-03T18:09:48.910Z,309
2023-04-03T18:11:59.476Z,308
2023-04-03T18:14:13.862Z,309
2023-04-03T18:16:29.191Z,309
2023-04-03T18:18:41.420Z,309
2023-04-03T18:20:51.244Z,309
2023-04-03T18:23:07.730Z,309
2023-04-03T18:25:22.602Z,309
2023-04-03T18:27:34.487Z,309
2023-04-03T18:29:51.042Z,309
2023-04-03T18:32:06.525Z,309
2023-04-03T18:34:16.344Z,310
2023-04-03T18:36:26.708Z,309
2023-04-03T18:38:46.078Z,309
2023-04-03T18:40:58.778Z,309
2023-04-03T18:43:15.871Z,309
2023-04-03T18:45:28.800Z,309
2023-04-03T18:47:43.667Z,309
2023-04-03T18:49:55.074Z,309
2023-04-03T18:52:03.756Z,309
2023-04-03T18:54:14.860Z,310
2023-04-03T18:56:26.897Z,310
2023-04-03T18:58:37.764Z,309
2023-04-03T19:00:49.749Z,310
2023-04-03T19:03:03.173Z,309
2023-04-03T19:05:18.512Z,310
2023-04-03T19:07:29.061Z,309
2023-04-03T19:09:41.972Z,310
2023-04-03T19:11:59.773Z,310
2023-04-03T19:14:23.743Z,310
2023-04-03T19:16:35.370Z,310
2023-04-03T19:18:44.021Z,310
2023-04-03T19:20:55.360Z,310
2023-04-03T19:23:05.218Z,310
2023-04-03T19:25:22.567Z,310
2023-04-03T19:27:32.716Z,310
2023-04-03T19:29:48.913Z,310
2023-04-03T19:32:01.896Z,310
2023-04-03T19:34:10.962Z,310
2023-04-03T19:36:27.452Z,310
2023-04-03T19:38:37.405Z,310
2023-04-03T19:40:46.430Z,310
2023-04-03T19:43:01.152Z,310
2023-04-03T19:45:11.134Z,310
2023-04-03T19:47:19.390Z,310
2023-04-03T19:49:34.338Z,310
2023-04-03T19:51:46.473Z,310
2023-04-03T19:53:56.900Z,310
2023-04-03T19:56:06.361Z,310
2023-04-03T19:58:16.674Z,310
2023-04-03T20:00:27.362Z,310
2023-04-03T20:02:52.116Z,310
2023-04-03T20:05:04.060Z,310
2023-04-03T20:07:14.641Z,310
2023-04-03T20:09:23.826Z,310
2023-04-03T20:11:31.818Z,310
2023-04-03T20:13:44.558Z,310
2023-04-03T20:16:01.617Z,310
2023-04-03T20:18:11.500Z,310
2023-04-03T20:20:19.859Z,310
2023-04-03T20:22:28.768Z,310
2023-04-03T20:24:37.368Z,310
2023-04-03T20:26:46.976Z,310
2023-04-03T20:28:56.292Z,310
2023-04-03T20:31:03.281Z,310
2023-04-03T20:33:24.346Z,310
2023-04-03T20:35:32.984Z,310
2023-04-03T20:37:41.769Z,310
2023-04-03T20:39:49.647Z,310
2023-04-03T20:41:57.078Z,310
2023-04-03T20:44:04.351Z,310
2023-04-03T20:46:11.851Z,310
2023-04-03T20:48:18.847Z,310
2023-04-03T20:50:25.934Z,310
2023-04-03T20:52:36.247Z,310
2023-04-03T20:54:43.635Z,310
2023-04-03T20:56:51.927Z,310
2023-04-03T20:58:58.974Z,310
2023-04-03T21:01:07.807Z,310
2023-04-03T21:03:15.019Z,310
2023-04-03T21:05:21.494Z,310
2023-04-03T21:07:28.171Z,310
2023-04-03T21:09:37.503Z,310
2023-04-03T21:11:45.468Z,310
2023-04-03T21:13:53.533Z,310
2023-04-03T21:16:01.342Z,310
2023-04-03T21:18:08.794Z,310
2023-04-03T21:20:16.931Z,310
2023-04-03T21:22:23.811Z,310
2023-04-03T21:24:32.106Z,310
2023-04-03T21:26:39.435Z,310
2023-04-03T21:28:46.007Z,310
2023-04-03T21:30:53.909Z,310
2023-04-03T21:33:01.810Z,310
2023-04-03T21:35:08.987Z,310
2023-04-03T21:37:15.459Z,310
2023-04-03T21:39:22.413Z,310
2023-04-03T21:41:29.772Z,310
2023-04-03T21:43:36.924Z,310
2023-04-03T21:45:43.730Z,310
2023-04-03T21:47:50.253Z,310
2023-04-03T21:49:56.918Z,310
2023-04-03T21:52:03.704Z,310
2023-04-03T21:54:11.680Z,310
2023-04-03T21:56:18.553Z,310
2023-04-03T21:58:25.253Z,310
2023-04-03T22:00:31.889Z,310
2023-04-03T22:03:09.765Z,310
2023-04-03T22:05:16.917Z,310
2023-04-03T22:07:23.203Z,310
2023-04-03T22:09:30.286Z,310
2023-04-03T22:11:37.061Z,310
2023-04-03T22:13:44.175Z,310
2023-04-03T22:15:52.584Z,310
2023-04-03T22:17:59.303Z,310
2023-04-03T22:20:06.112Z,310
2023-04-03T22:22:13.476Z,310
2023-04-03T22:24:19.811Z,310
2023-04-03T22:26:26.966Z,310
2023-04-03T22:28:33.913Z,310
2023-04-03T22:30:42.180Z,310
2023-04-03T22:32:48.558Z,310
2023-04-03T22:34:54.740Z,310
2023-04-03T22:37:01.390Z,312
2023-04-03T22:39:10.126Z,310
2023-04-03T22:41:18.001Z,310
2023-04-03T22:43:26.538Z,310
2023-04-03T22:45:32.672Z,312
2023-04-03T22:47:39.806Z,310
2023-04-03T22:49:46.214Z,312
2023-04-03T22:51:52.826Z,310
2023-04-03T22:53:59.775Z,310
2023-04-03T22:56:06.111Z,312
2023-04-03T22:58:12.770Z,310
2023-04-03T23:00:19.717Z,312
2023-04-03T23:02:26.789Z,312
2023-04-03T23:04:33.564Z,312
2023-04-03T23:06:40.328Z,312
2023-04-03T23:08:47.164Z,312
2023-04-03T23:10:53.516Z,310
2023-04-03T23:13:00.940Z,312
2023-04-03T23:15:07.202Z,312
2023-04-03T23:17:13.457Z,312
2023-04-03T23:19:21.564Z,312
2023-04-03T23:21:27.897Z,312
2023-04-03T23:23:35.119Z,312
2023-04-03T23:25:41.491Z,312
2023-04-03T23:27:47.899Z,312
2023-04-03T23:29:55.000Z,312
2023-04-03T23:32:04.100Z,312
2023-04-03T23:34:10.883Z,312
2023-04-03T23:36:17.621Z,312
2023-04-03T23:38:24.072Z,312
2023-04-03T23:40:30.971Z,312
2023-04-03T23:42:37.161Z,312
2023-04-03T23:44:43.614Z,312
2023-04-03T23:46:49.980Z,312
2023-04-03T23:48:56.968Z,312
2023-04-03T23:51:07.554Z,312
2023-04-03T23:53:14.395Z,312
2023-04-03T23:55:21.579Z,312
2023-04-03T23:57:28.236Z,312
2023-04-03T23:59:35.408Z,312
